createdAt,value
2022-09-21T00:01:05.393Z,14.60
2022-09-21T00:03:32.939Z,14.60
2022-09-21T00:06:06.972Z,14.70
2022-09-21T00:08:34.618Z,14.33
2022-09-21T00:11:02.188Z,14.05
2022-09-21T00:13:29.844Z,14.34
2022-09-21T00:15:57.372Z,14.35
2022-09-21T00:18:25.003Z,14.49
2022-09-21T00:20:55.202Z,14.35
2022-09-21T00:23:23.834Z,14.26
2022-09-21T00:25:51.116Z,14.43
2022-09-21T00:28:18.300Z,14.60
2022-09-21T00:30:45.908Z,14.27
2022-09-21T00:33:13.148Z,14.62
2022-09-21T00:35:41.337Z,14.27
2022-09-21T00:38:08.776Z,14.40
2022-09-21T00:40:36.458Z,14.44
2022-09-21T00:43:13.778Z,14.50
2022-09-21T00:45:41.346Z,14.51
2022-09-21T00:48:08.576Z,14.64
2022-09-21T00:50:36.151Z,14.68
2022-09-21T00:53:03.720Z,14.51
2022-09-21T00:55:34.238Z,14.68
2022-09-21T00:58:03.487Z,14.31
2022-09-21T01:00:30.967Z,14.49
2022-09-21T01:03:01.444Z,14.53
2022-09-21T01:05:29.053Z,14.56
2022-09-21T01:07:57.297Z,14.53
2022-09-21T01:10:25.897Z,14.60
2022-09-21T01:13:14.143Z,14.34
2022-09-21T01:16:20.506Z,14.19
2022-09-21T01:18:51.795Z,14.44
2022-09-21T01:21:20.348Z,14.62
2022-09-21T01:24:02.937Z,14.63
2022-09-21T01:26:36.394Z,14.30
2022-09-21T01:29:17.069Z,14.40
2022-09-21T01:31:55.240Z,14.42
2022-09-21T01:34:34.483Z,14.13
2022-09-21T01:37:03.473Z,14.39
2022-09-21T01:39:30.674Z,14.41
2022-09-21T01:41:57.845Z,14.26
2022-09-21T01:44:27.287Z,13.95
2022-09-21T01:46:54.588Z,13.55
2022-09-21T01:49:23.279Z,14.07
2022-09-21T01:51:52.084Z,14.29
2022-09-21T01:54:22.098Z,14.46
2022-09-21T01:57:09.527Z,14.57
2022-09-21T01:59:37.217Z,14.37
2022-09-21T02:02:15.515Z,14.38
2022-09-21T02:04:43.024Z,14.51
2022-09-21T02:07:10.228Z,14.45
2022-09-21T02:09:37.494Z,14.44
2022-09-21T02:12:05.575Z,14.61
2022-09-21T02:14:33.480Z,14.64
2022-09-21T02:17:07.475Z,14.71
2022-09-21T02:19:56.729Z,14.74
2022-09-21T02:22:32.047Z,14.50
2022-09-21T02:25:05.560Z,14.24
2022-09-21T02:27:46.023Z,14.27
2022-09-21T02:30:14.656Z,14.63
2022-09-21T02:32:49.152Z,14.63
2022-09-21T02:35:32.000Z,14.55
2022-09-21T02:38:03.697Z,14.78
2022-09-21T02:40:31.441Z,14.72
2022-09-21T02:42:59.773Z,14.59
2022-09-21T02:45:27.948Z,13.96
2022-09-21T02:48:03.647Z,14.32
2022-09-21T02:50:57.122Z,14.48
2022-09-21T02:53:25.980Z,14.12
2022-09-21T02:55:56.471Z,14.03
2022-09-21T02:58:24.646Z,14.49
2022-09-21T03:00:52.103Z,13.97
2022-09-21T03:03:20.662Z,13.87
2022-09-21T03:05:48.699Z,14.12
2022-09-21T03:08:16.583Z,14.31
2022-09-21T03:10:43.841Z,14.39
2022-09-21T03:13:11.101Z,14.05
2022-09-21T03:15:39.171Z,13.81
2022-09-21T03:18:07.900Z,14.01
2022-09-21T03:20:35.734Z,13.91
2022-09-21T03:23:03.227Z,14.36
2022-09-21T03:25:31.011Z,14.38
2022-09-21T03:27:58.576Z,14.40
2022-09-21T03:30:26.556Z,14.29
2022-09-21T03:32:53.758Z,14.51
2022-09-21T03:35:21.805Z,14.27
2022-09-21T03:37:49.593Z,14.68
2022-09-21T03:40:17.170Z,14.79
2022-09-21T03:42:44.378Z,14.65
2022-09-21T03:45:12.112Z,14.77
2022-09-21T03:47:39.503Z,14.87
2022-09-21T03:50:10.028Z,14.83
2022-09-21T03:52:38.537Z,14.99
2022-09-21T03:55:06.653Z,14.97
2022-09-21T03:57:34.480Z,14.95
2022-09-21T04:00:04.025Z,14.89
2022-09-21T04:02:32.125Z,14.75
2022-09-21T04:05:00.112Z,14.85
2022-09-21T04:07:30.224Z,14.75
2022-09-21T04:09:57.407Z,14.89
2022-09-21T04:12:24.848Z,14.61
2022-09-21T04:14:52.125Z,14.54
2022-09-21T04:17:19.392Z,14.64
2022-09-21T04:19:47.866Z,14.70
2022-09-21T04:22:15.056Z,14.63
2022-09-21T04:24:42.285Z,14.63
2022-09-21T04:27:10.137Z,14.21
2022-09-21T04:29:37.639Z,14.39
2022-09-21T04:32:05.139Z,14.06
2022-09-21T04:34:32.657Z,13.89
2022-09-21T04:36:59.946Z,14.05
2022-09-21T04:39:27.098Z,13.54
2022-09-21T04:41:54.675Z,13.64
2022-09-21T04:44:22.064Z,13.88
2022-09-21T04:46:49.237Z,13.85
2022-09-21T04:49:16.700Z,13.66
2022-09-21T04:51:43.917Z,13.32
2022-09-21T04:54:11.107Z,13.56
2022-09-21T04:56:38.559Z,13.17
2022-09-21T04:59:05.825Z,13.39
2022-09-21T05:01:33.093Z,13.29
2022-09-21T05:04:02.525Z,12.58
2022-09-21T05:06:30.263Z,12.62
2022-09-21T05:09:16.063Z,13.28
2022-09-21T05:11:43.596Z,13.46
2022-09-21T05:14:11.047Z,13.48
2022-09-21T05:16:38.422Z,12.86
2022-09-21T05:19:06.051Z,12.82
2022-09-21T05:21:33.381Z,12.90
2022-09-21T05:24:00.666Z,12.76
2022-09-21T05:26:28.209Z,12.80
2022-09-21T05:28:55.646Z,13.23
2022-09-21T05:31:37.673Z,13.22
2022-09-21T05:34:17.600Z,13.48
2022-09-21T05:36:47.934Z,13.18
2022-09-21T05:39:15.528Z,13.05
2022-09-21T05:41:42.882Z,13.38
2022-09-21T05:44:14.350Z,13.10
2022-09-21T05:46:42.905Z,12.72
2022-09-21T05:49:15.018Z,13.04
2022-09-21T05:51:51.633Z,13.14
2022-09-21T05:54:21.021Z,12.94
2022-09-21T05:56:53.939Z,12.90
2022-09-21T05:59:33.277Z,13.33
2022-09-21T06:02:04.911Z,12.97
2022-09-21T06:04:32.580Z,13.12
2022-09-21T06:06:59.806Z,12.57
2022-09-21T06:09:27.956Z,13.28
2022-09-21T06:11:55.448Z,12.87
2022-09-21T06:14:25.656Z,13.24
2022-09-21T06:16:53.027Z,13.16
2022-09-21T06:19:20.640Z,13.16
2022-09-21T06:21:48.176Z,13.36
2022-09-21T06:24:15.425Z,13.93
2022-09-21T06:26:43.111Z,14.84
2022-09-21T06:29:10.370Z,13.85
2022-09-21T06:31:37.653Z,13.82
2022-09-21T06:34:05.190Z,13.63
2022-09-21T06:36:32.516Z,13.57
2022-09-21T06:38:59.717Z,14.04
2022-09-21T06:41:27.186Z,12.88
2022-09-21T06:43:55.600Z,13.47
2022-09-21T06:46:22.859Z,12.85
2022-09-21T06:48:50.571Z,13.18
2022-09-21T06:51:17.812Z,13.33
2022-09-21T06:53:45.138Z,13.17
2022-09-21T06:56:12.617Z,13.12
2022-09-21T06:58:39.874Z,12.82
2022-09-21T07:01:07.750Z,12.92
2022-09-21T07:03:35.467Z,13.51
2022-09-21T07:06:02.678Z,13.05
2022-09-21T07:11:17.436Z,13.14
2022-09-21T07:13:45.517Z,13.34
2022-09-21T07:16:13.303Z,13.37
2022-09-21T07:18:44.357Z,13.41
2022-09-21T07:21:12.044Z,13.45
2022-09-21T07:23:39.256Z,13.21
2022-09-21T07:26:08.192Z,13.90
2022-09-21T07:28:35.790Z,14.04
2022-09-21T07:31:10.795Z,13.73
2022-09-21T07:33:38.258Z,14.31
2022-09-21T07:36:10.366Z,14.40
2022-09-21T07:38:39.561Z,14.17
2022-09-21T07:41:07.278Z,14.12
2022-09-21T07:43:34.766Z,14.12
2022-09-21T07:46:02.369Z,14.12
2022-09-21T07:48:30.400Z,13.80
2022-09-21T07:51:07.648Z,13.55
2022-09-21T07:53:38.994Z,13.82
2022-09-21T07:56:07.136Z,14.33
2022-09-21T07:58:54.070Z,14.80
2022-09-21T08:01:21.398Z,14.60
2022-09-21T08:03:52.324Z,14.72
2022-09-21T08:06:19.633Z,14.93
2022-09-21T08:08:48.048Z,15.10
2022-09-21T08:11:16.417Z,14.93
2022-09-21T08:13:43.860Z,14.79
2022-09-21T08:16:11.387Z,14.85
2022-09-21T08:18:39.751Z,14.68
2022-09-21T08:21:07.421Z,15.13
2022-09-21T08:23:34.874Z,15.53
2022-09-21T08:26:03.258Z,15.32
2022-09-21T08:28:31.262Z,15.17
2022-09-21T08:31:02.246Z,14.88
2022-09-21T08:33:30.015Z,15.51
2022-09-21T08:35:58.327Z,15.66
2022-09-21T08:38:25.946Z,15.19
2022-09-21T08:40:53.550Z,16.01
2022-09-21T08:43:29.901Z,15.64
2022-09-21T08:45:57.452Z,15.94
2022-09-21T08:48:29.970Z,15.39
2022-09-21T08:50:59.830Z,15.70
2022-09-21T08:53:33.773Z,15.39
2022-09-21T08:56:02.858Z,15.66
2022-09-21T08:58:31.197Z,15.60
2022-09-21T09:01:17.482Z,15.76
2022-09-21T09:03:52.017Z,16.03
2022-09-21T09:06:48.801Z,15.95
2022-09-21T09:09:39.701Z,15.83
2022-09-21T09:12:16.654Z,15.04
2022-09-21T09:14:56.126Z,15.32
2022-09-21T09:17:26.882Z,15.26
2022-09-21T09:19:56.129Z,15.85
2022-09-21T09:22:34.479Z,15.69
2022-09-21T09:25:03.868Z,15.90
2022-09-21T09:27:35.345Z,16.48
2022-09-21T09:30:05.235Z,16.26
2022-09-21T09:32:45.486Z,16.18
2022-09-21T09:35:39.137Z,16.32
2022-09-21T09:38:19.753Z,16.54
2022-09-21T09:41:06.845Z,16.13
2022-09-21T09:43:40.206Z,16.34
2022-09-21T09:46:11.195Z,16.76
2022-09-21T09:48:58.920Z,16.11
2022-09-21T09:51:26.999Z,16.14
2022-09-21T09:53:54.293Z,16.33
2022-09-21T09:56:21.522Z,16.94
2022-09-21T09:58:57.473Z,16.85
2022-09-21T10:01:36.968Z,17.15
2022-09-21T10:04:05.937Z,17.17
2022-09-21T10:06:33.440Z,17.07
2022-09-21T10:09:00.899Z,17.23
2022-09-21T10:11:35.707Z,17.74
2022-09-21T10:14:14.740Z,17.14
2022-09-21T10:16:42.356Z,17.63
2022-09-21T10:19:16.882Z,17.62
2022-09-21T10:21:48.805Z,17.57
2022-09-21T10:24:19.133Z,17.24
2022-09-21T10:26:49.384Z,17.79
2022-09-21T10:29:22.702Z,17.61
2022-09-21T10:32:14.845Z,17.64
2022-09-21T10:35:00.089Z,17.71
2022-09-21T10:37:29.246Z,17.92
2022-09-21T10:39:57.241Z,17.60
2022-09-21T10:42:24.462Z,17.86
2022-09-21T10:45:05.324Z,18.19
2022-09-21T10:47:34.601Z,17.95
2022-09-21T10:50:02.857Z,18.10
2022-09-21T10:52:37.631Z,18.00
2022-09-21T10:55:05.756Z,18.50
2022-09-21T10:57:33.153Z,18.91
2022-09-21T11:00:35.705Z,18.50
2022-09-21T11:03:05.459Z,17.74
2022-09-21T11:05:38.912Z,18.00
2022-09-21T11:08:09.854Z,18.41
2022-09-21T11:10:43.352Z,18.60
2022-09-21T11:13:17.875Z,18.82
2022-09-21T11:15:52.780Z,18.27
2022-09-21T11:18:22.452Z,18.65
2022-09-21T11:20:51.443Z,18.99
2022-09-21T11:23:18.659Z,19.16
2022-09-21T11:26:04.768Z,19.42
2022-09-21T11:28:40.877Z,19.16
2022-09-21T11:31:23.696Z,18.69
2022-09-21T11:34:10.501Z,19.05
2022-09-21T11:36:38.294Z,18.98
2022-09-21T11:39:32.276Z,18.98
2022-09-21T11:42:00.707Z,19.10
2022-09-21T11:44:28.058Z,19.15
2022-09-21T11:46:59.300Z,18.82
2022-09-21T11:49:29.999Z,19.55
2022-09-21T11:52:16.143Z,19.55
2022-09-21T11:55:02.245Z,19.15
2022-09-21T11:57:38.742Z,18.54
2022-09-21T12:00:11.565Z,18.99
2022-09-21T12:05:33.962Z,18.46
2022-09-21T12:08:04.591Z,18.80
2022-09-21T12:10:50.403Z,18.05
2022-09-21T12:13:20.851Z,17.95
2022-09-21T12:15:55.541Z,18.01
2022-09-21T12:18:27.473Z,18.10
2022-09-21T12:21:14.927Z,18.70
2022-09-21T12:23:43.990Z,18.92
2022-09-21T12:26:12.226Z,19.05
2022-09-21T12:28:40.819Z,18.82
2022-09-21T12:31:29.197Z,18.68
2022-09-21T12:33:57.956Z,18.89
2022-09-21T12:36:25.429Z,18.77
2022-09-21T12:38:59.230Z,18.63
2022-09-21T12:41:30.004Z,18.73
2022-09-21T12:44:00.669Z,18.83
2022-09-21T12:46:28.193Z,18.04
2022-09-21T12:48:55.440Z,18.24
2022-09-21T12:51:29.357Z,17.77
2022-09-21T12:53:58.385Z,17.74
2022-09-21T12:56:35.702Z,17.42
2022-09-21T12:59:09.609Z,18.11
2022-09-21T13:01:47.549Z,18.18
2022-09-21T13:04:28.165Z,17.85
2022-09-21T13:07:02.073Z,18.83
2022-09-21T13:09:29.575Z,19.16
2022-09-21T13:11:57.812Z,19.14
2022-09-21T13:14:25.407Z,19.01
2022-09-21T13:16:53.866Z,19.27
2022-09-21T13:19:21.943Z,19.39
2022-09-21T13:22:08.519Z,19.28
2022-09-21T13:24:36.001Z,19.19
2022-09-21T13:27:07.581Z,19.58
2022-09-21T13:29:36.112Z,19.73
2022-09-21T13:32:04.442Z,19.52
2022-09-21T13:34:36.144Z,19.78
2022-09-21T13:37:17.439Z,19.26
2022-09-21T13:39:45.192Z,18.72
2022-09-21T13:42:31.205Z,18.73
2022-09-21T13:44:58.952Z,18.41
2022-09-21T13:47:30.736Z,18.87
2022-09-21T13:50:00.701Z,18.99
2022-09-21T13:52:30.108Z,19.60
2022-09-21T13:54:58.684Z,19.08
2022-09-21T13:57:27.096Z,19.18
2022-09-21T14:00:21.095Z,19.18
2022-09-21T14:02:55.408Z,19.83
2022-09-21T14:05:23.483Z,19.21
2022-09-21T14:07:55.339Z,19.49
2022-09-21T14:10:22.585Z,19.21
2022-09-21T14:12:49.778Z,18.81
2022-09-21T14:15:19.418Z,18.58
2022-09-21T14:18:07.834Z,17.62
2022-09-21T14:20:39.513Z,18.01
2022-09-21T14:23:20.039Z,18.36
2022-09-21T14:25:51.775Z,19.04
2022-09-21T14:28:26.608Z,18.95
2022-09-21T14:30:58.404Z,18.81
2022-09-21T14:33:30.417Z,18.46
2022-09-21T14:35:57.970Z,18.65
2022-09-21T14:38:28.424Z,18.99
2022-09-21T14:41:03.306Z,18.54
2022-09-21T14:43:33.865Z,18.50
2022-09-21T14:46:01.407Z,18.26
2022-09-21T14:48:30.538Z,18.45
2022-09-21T14:51:18.543Z,18.41
2022-09-21T14:54:00.987Z,18.68
2022-09-21T14:56:30.728Z,18.61
2022-09-21T14:59:04.283Z,19.05
2022-09-21T15:01:31.825Z,18.39
2022-09-21T15:04:03.150Z,18.23
2022-09-21T15:06:52.014Z,18.25
2022-09-21T15:09:57.470Z,18.07
2022-09-21T15:12:27.605Z,18.04
2022-09-21T15:15:21.571Z,17.97
2022-09-21T15:17:59.254Z,17.55
2022-09-21T15:20:28.185Z,17.96
2022-09-21T15:22:55.962Z,18.12
2022-09-21T15:25:23.438Z,18.06
2022-09-21T15:27:51.767Z,17.50
2022-09-21T15:30:24.386Z,18.20
2022-09-21T15:32:53.204Z,17.80
2022-09-21T15:35:21.318Z,18.25
2022-09-21T15:37:48.658Z,17.98
2022-09-21T15:40:17.770Z,17.98
2022-09-21T15:43:01.096Z,18.01
2022-09-21T15:45:28.963Z,17.93
2022-09-21T15:47:58.077Z,18.08
2022-09-21T15:50:25.326Z,17.95
2022-09-21T15:52:54.844Z,18.06
2022-09-21T15:55:22.166Z,18.05
2022-09-21T15:57:50.207Z,18.25
2022-09-21T16:00:18.949Z,17.29
2022-09-21T16:02:51.407Z,17.64
2022-09-21T16:05:19.881Z,17.52
2022-09-21T16:07:47.707Z,17.45
2022-09-21T16:10:29.935Z,17.64
2022-09-21T16:13:01.153Z,17.31
2022-09-21T16:15:30.103Z,17.55
2022-09-21T16:18:01.940Z,17.66
2022-09-21T16:20:44.284Z,17.66
2022-09-21T16:23:13.967Z,17.21
2022-09-21T16:25:43.023Z,17.64
2022-09-21T16:28:16.394Z,17.76
2022-09-21T16:30:44.817Z,17.77
2022-09-21T16:33:30.986Z,17.64
2022-09-21T16:35:58.862Z,17.51
2022-09-21T16:38:26.402Z,17.97
2022-09-21T16:40:54.789Z,17.52
2022-09-21T16:43:24.268Z,16.90
2022-09-21T16:45:51.515Z,17.24
2022-09-21T16:48:18.946Z,17.58
2022-09-21T16:50:46.865Z,16.96
2022-09-21T16:53:14.139Z,17.22
2022-09-21T16:55:42.906Z,17.37
2022-09-21T16:58:10.907Z,17.26
2022-09-21T17:00:39.569Z,16.92
2022-09-21T17:03:06.897Z,17.76
2022-09-21T17:05:34.354Z,17.84
2022-09-21T17:08:01.670Z,17.86
2022-09-21T17:10:30.981Z,17.68
2022-09-21T17:12:59.263Z,17.66
2022-09-21T17:15:28.531Z,17.56
2022-09-21T17:17:58.123Z,17.42
2022-09-21T17:20:35.910Z,16.92
2022-09-21T17:23:03.546Z,17.42
2022-09-21T17:25:32.813Z,17.17
2022-09-21T17:28:00.544Z,17.59
2022-09-21T17:30:29.135Z,17.25
2022-09-21T17:32:58.308Z,17.54
2022-09-21T17:35:40.046Z,17.75
2022-09-21T17:38:12.601Z,17.86
2022-09-21T17:40:42.946Z,17.56
2022-09-21T17:43:13.725Z,17.91
2022-09-21T17:45:42.386Z,17.96
2022-09-21T17:48:13.179Z,17.23
2022-09-21T17:50:42.055Z,17.79
2022-09-21T17:53:28.444Z,17.53
2022-09-21T17:56:01.100Z,17.35
2022-09-21T17:58:38.339Z,17.11
2022-09-21T18:01:26.313Z,16.99
2022-09-21T18:03:57.587Z,17.04
2022-09-21T18:06:25.930Z,16.96
2022-09-21T18:08:54.238Z,16.53
2022-09-21T18:11:27.783Z,16.56
2022-09-21T18:14:01.095Z,16.68
2022-09-21T18:16:28.664Z,16.31
2022-09-21T18:19:02.555Z,16.72
2022-09-21T18:21:31.882Z,16.72
2022-09-21T18:24:02.192Z,17.03
2022-09-21T18:26:33.165Z,17.02
2022-09-21T18:29:12.557Z,17.16
2022-09-21T18:32:08.225Z,17.08
2022-09-21T18:34:55.234Z,17.31
2022-09-21T18:37:35.849Z,17.22
2022-09-21T18:40:09.167Z,17.39
2022-09-21T18:42:42.404Z,17.12
2022-09-21T18:45:17.365Z,17.34
2022-09-21T18:47:46.230Z,17.04
2022-09-21T18:50:16.848Z,16.60
2022-09-21T18:52:50.151Z,16.85
2022-09-21T18:55:23.681Z,17.01
2022-09-21T18:57:51.617Z,17.18
2022-09-21T19:00:19.661Z,17.17
2022-09-21T19:03:12.232Z,17.11
2022-09-21T19:05:34.745Z,17.19
2022-09-21T19:08:10.935Z,17.16
2022-09-21T19:10:39.405Z,16.93
2022-09-21T19:13:13.115Z,17.09
2022-09-21T19:15:59.888Z,17.11
2022-09-21T19:18:34.970Z,17.10
2022-09-21T19:21:08.878Z,16.71
2022-09-21T19:23:51.768Z,16.92
2022-09-21T19:26:31.346Z,16.67
2022-09-21T19:29:17.522Z,16.82
2022-09-21T19:31:45.141Z,16.51
2022-09-21T19:34:14.771Z,16.68
2022-09-21T19:36:42.512Z,16.69
2022-09-21T19:39:10.875Z,16.69
2022-09-21T19:41:41.650Z,16.48
2022-09-21T19:44:29.791Z,16.56
2022-09-21T19:47:06.561Z,16.73
2022-09-21T19:49:41.417Z,16.48
2022-09-21T19:52:08.959Z,16.73
2022-09-21T19:54:55.004Z,16.45
2022-09-21T19:57:41.376Z,16.11
2022-09-21T20:00:09.934Z,16.65
2022-09-21T20:02:59.236Z,16.18
2022-09-21T20:05:34.358Z,16.35
2022-09-21T20:08:10.986Z,16.34
2022-09-21T20:10:42.248Z,16.35
2022-09-21T20:13:21.860Z,15.95
2022-09-21T20:15:54.069Z,15.49
2022-09-21T20:18:21.579Z,15.99
2022-09-21T20:20:48.849Z,15.89
2022-09-21T20:23:16.199Z,15.46
2022-09-21T20:25:54.102Z,16.07
2022-09-21T20:28:22.044Z,16.13
2022-09-21T20:30:50.349Z,16.20
2022-09-21T20:33:21.385Z,16.30
2022-09-21T20:35:48.960Z,16.34
2022-09-21T20:38:17.963Z,16.18
2022-09-21T20:40:45.468Z,16.23
2022-09-21T20:43:14.200Z,16.04
2022-09-21T20:45:48.090Z,16.00
2022-09-21T20:48:15.748Z,15.95
2022-09-21T20:50:44.518Z,15.95
2022-09-21T20:53:12.570Z,15.80
2022-09-21T20:55:41.052Z,15.31
2022-09-21T20:58:11.035Z,15.46
2022-09-21T21:00:38.304Z,15.49
2022-09-21T21:03:05.580Z,15.26
2022-09-21T21:05:33.141Z,15.22
2022-09-21T21:08:00.326Z,15.04
2022-09-21T21:10:27.649Z,14.70
2022-09-21T21:12:55.382Z,14.54
2022-09-21T21:15:22.650Z,15.40
2022-09-21T21:17:49.872Z,15.36
2022-09-21T21:20:17.406Z,15.59
2022-09-21T21:22:45.118Z,15.45
2022-09-21T21:25:12.330Z,15.34
2022-09-21T21:27:39.909Z,15.35
2022-09-21T21:30:07.841Z,15.27
2022-09-21T21:32:35.402Z,15.41
2022-09-21T21:35:03.014Z,15.25
2022-09-21T21:37:30.312Z,14.58
2022-09-21T21:39:57.726Z,15.18
2022-09-21T21:42:25.549Z,15.11
2022-09-21T21:44:52.755Z,14.99
2022-09-21T21:47:39.750Z,15.15
2022-09-21T21:50:07.715Z,15.07
2022-09-21T21:52:34.902Z,14.48
2022-09-21T21:55:02.546Z,15.05
2022-09-21T21:57:30.227Z,14.33
2022-09-21T21:59:57.509Z,14.76
2022-09-21T22:02:24.842Z,14.49
2022-09-21T22:04:52.729Z,14.88
2022-09-21T22:07:19.978Z,14.88
2022-09-21T22:09:47.639Z,14.98
2022-09-21T22:12:15.687Z,14.77
2022-09-21T22:14:46.198Z,14.83
2022-09-21T22:17:13.506Z,14.56
2022-09-21T22:19:41.063Z,14.63
2022-09-21T22:22:08.936Z,14.72
2022-09-21T22:24:36.176Z,14.73
2022-09-21T22:27:03.809Z,14.36
2022-09-21T22:29:31.028Z,14.27
2022-09-21T22:31:58.364Z,14.26
2022-09-21T22:34:26.025Z,14.38
2022-09-21T22:36:53.873Z,14.09
2022-09-21T22:39:21.371Z,13.97
2022-09-21T22:41:48.899Z,14.40
2022-09-21T22:44:16.085Z,14.55
2022-09-21T22:46:43.326Z,14.27
2022-09-21T22:49:10.815Z,14.44
2022-09-21T22:51:38.196Z,14.72
2022-09-21T22:54:05.585Z,14.93
2022-09-21T22:56:33.351Z,15.02
2022-09-21T22:59:01.567Z,15.02
2022-09-21T23:01:36.257Z,15.06
2022-09-21T23:04:05.138Z,14.96
2022-09-21T23:06:33.623Z,15.03
2022-09-21T23:09:02.101Z,15.03
2022-09-21T23:11:31.778Z,15.00
2022-09-21T23:13:59.135Z,14.80
2022-09-21T23:16:27.389Z,14.77
2022-09-21T23:18:55.312Z,14.58
2022-09-21T23:21:23.866Z,14.59
2022-09-21T23:23:54.877Z,13.63
2022-09-21T23:26:26.157Z,14.08
2022-09-21T23:28:54.366Z,14.35
2022-09-21T23:31:21.978Z,14.46
2022-09-21T23:33:50.060Z,14.51
2022-09-21T23:36:18.188Z,14.42
2022-09-21T23:38:46.514Z,14.61
2022-09-21T23:41:13.672Z,14.51
2022-09-21T23:43:41.468Z,14.36
2022-09-21T23:46:09.555Z,14.31
2022-09-21T23:48:36.838Z,14.59
2022-09-21T23:51:04.272Z,14.71
2022-09-21T23:53:32.029Z,14.22
2022-09-21T23:55:59.310Z,14.65
2022-09-21T23:58:26.925Z,14.76
